createdAt,value
2019-05-06T00:01:56.127Z,3.73
2019-05-06T00:04:28.686Z,3.20
2019-05-06T00:06:58.230Z,3.57
2019-05-06T00:09:41.259Z,3.03
2019-05-06T00:12:05.865Z,3.27
2019-05-06T00:14:39.871Z,3.10
2019-05-06T00:17:16.625Z,3.33
2019-05-06T00:20:10.978Z,3.33
2019-05-06T00:22:19.265Z,3.67
2019-05-06T00:24:54.590Z,3.40
2019-05-06T00:27:24.761Z,3.37
2019-05-06T00:29:57.471Z,3.50
2019-05-06T00:32:27.507Z,3.50
2019-05-06T00:34:57.775Z,3.27
2019-05-06T00:37:34.759Z,3.40
2019-05-06T00:40:10.055Z,3.63
2019-05-06T00:42:49.353Z,4.00
2019-05-06T00:45:15.883Z,3.40
2019-05-06T00:47:53.592Z,3.70
2019-05-06T00:50:19.857Z,3.10
2019-05-06T00:52:53.959Z,3.40
2019-05-06T00:55:24.044Z,3.53
2019-05-06T00:57:54.456Z,3.40
2019-05-06T01:00:25.429Z,3.50
2019-05-06T01:02:54.647Z,3.20
2019-05-06T01:05:33.800Z,3.90
2019-05-06T01:08:09.609Z,3.50
2019-05-06T01:10:37.413Z,3.80
2019-05-06T01:13:08.003Z,3.87
2019-05-06T01:15:43.934Z,3.47
2019-05-06T01:18:13.782Z,3.73
2019-05-06T01:20:46.532Z,3.77
2019-05-06T01:23:21.077Z,3.13
2019-05-06T01:25:54.508Z,3.30
2019-05-06T01:28:29.497Z,3.20
2019-05-06T01:31:42.293Z,3.33
2019-05-06T01:33:34.850Z,3.50
2019-05-06T01:36:04.631Z,3.80
2019-05-06T01:38:38.583Z,3.33
2019-05-06T01:41:24.390Z,3.53
2019-05-06T01:44:04.125Z,3.50
2019-05-06T01:46:26.037Z,3.10
2019-05-06T01:48:56.887Z,3.50
2019-05-06T01:51:27.173Z,3.50
2019-05-06T01:54:03.910Z,3.03
2019-05-06T01:56:44.823Z,3.23
2019-05-06T01:59:06.293Z,3.70
2019-05-06T02:01:53.943Z,4.43
2019-05-06T02:04:08.995Z,3.47
2019-05-06T02:06:39.957Z,3.63
2019-05-06T02:09:14.220Z,3.07
2019-05-06T02:11:47.893Z,3.00
2019-05-06T02:14:18.109Z,3.03
2019-05-06T02:16:55.449Z,3.47
2019-05-06T02:19:27.557Z,4.23
2019-05-06T02:21:58.015Z,3.87
2019-05-06T02:24:36.216Z,3.30
2019-05-06T02:27:09.064Z,3.30
2019-05-06T02:29:55.199Z,3.93
2019-05-06T02:32:35.990Z,2.90
2019-05-06T02:35:17.145Z,3.20
2019-05-06T02:37:47.520Z,3.30
2019-05-06T02:40:27.175Z,2.80
2019-05-06T02:42:56.882Z,3.57
2019-05-06T02:45:33.539Z,3.10
2019-05-06T02:48:22.857Z,3.03
2019-05-06T02:50:54.057Z,2.73
2019-05-06T02:53:23.753Z,2.60
2019-05-06T02:55:57.021Z,2.97
2019-05-06T02:58:27.664Z,3.13
2019-05-06T03:00:58.756Z,2.83
2019-05-06T03:03:28.871Z,2.70
2019-05-06T03:06:03.693Z,2.90
2019-05-06T03:08:32.698Z,2.47
2019-05-06T03:11:03.979Z,3.10
2019-05-06T03:13:35.325Z,2.87
2019-05-06T03:16:53.600Z,2.80
2019-05-06T03:21:36.685Z,2.80
2019-05-06T03:24:07.415Z,3.07
2019-05-06T03:26:34.447Z,2.77
2019-05-06T03:29:05.033Z,2.77
2019-05-06T03:31:36.360Z,3.13
2019-05-06T03:34:27.790Z,2.67
2019-05-06T03:36:41.222Z,3.30
2019-05-06T03:39:13.900Z,2.53
2019-05-06T03:41:50.289Z,2.80
2019-05-06T03:44:23.957Z,2.83
2019-05-06T03:47:13.807Z,2.43
2019-05-06T03:49:49.772Z,2.63
2019-05-06T03:52:18.902Z,2.30
2019-05-06T03:54:48.010Z,2.73
2019-05-06T03:57:22.925Z,2.83
2019-05-06T04:00:04.962Z,2.67
2019-05-06T04:02:27.317Z,2.83
2019-05-06T04:04:57.895Z,2.97
2019-05-06T04:07:30.142Z,2.60
2019-05-06T04:09:58.906Z,3.23
2019-05-06T04:12:34.326Z,3.10
2019-05-06T04:15:04.311Z,2.70
2019-05-06T04:17:38.172Z,2.90
2019-05-06T04:20:23.591Z,3.43
2019-05-06T04:22:53.103Z,2.50
2019-05-06T04:25:43.474Z,3.10
2019-05-06T04:28:14.042Z,3.07
2019-05-06T04:30:43.494Z,2.73
2019-05-06T04:33:23.477Z,2.90
2019-05-06T04:35:54.179Z,3.00
2019-05-06T04:38:23.489Z,2.80
2019-05-06T04:40:58.342Z,3.00
2019-05-06T04:46:17.029Z,3.47
2019-05-06T04:48:46.407Z,2.70
2019-05-06T04:51:15.008Z,3.43
2019-05-06T04:53:44.330Z,3.10
2019-05-06T04:56:15.083Z,3.20
2019-05-06T04:58:44.538Z,3.43
2019-05-06T05:01:18.521Z,3.00
2019-05-06T05:03:47.603Z,2.77
2019-05-06T05:06:18.568Z,3.00
2019-05-06T05:09:36.922Z,3.20
2019-05-06T05:17:33.149Z,2.40
2019-05-06T05:20:13.233Z,2.93
2019-05-06T05:22:23.038Z,2.60
2019-05-06T05:24:54.966Z,2.63
2019-05-06T05:27:47.086Z,2.90
2019-05-06T05:30:15.304Z,3.00
2019-05-06T05:32:52.025Z,3.10
2019-05-06T05:35:22.601Z,9.67
2019-05-06T05:37:58.648Z,2.43
2019-05-06T05:40:42.953Z,2.90
2019-05-06T05:43:13.458Z,2.73
2019-05-06T05:45:47.577Z,2.87
2019-05-06T05:48:38.134Z,2.90
2019-05-06T05:51:46.823Z,2.80
2019-05-06T06:05:08.710Z,2.90
2019-05-06T06:06:42.311Z,3.53
2019-05-06T06:18:43.864Z,2.57
2019-05-06T06:21:25.678Z,2.57
2019-05-06T06:24:05.124Z,2.63
2019-05-06T06:27:47.586Z,2.63
2019-05-06T06:29:37.135Z,2.40
2019-05-06T06:35:07.155Z,2.53
2019-05-06T06:37:42.512Z,2.67
2019-05-06T06:40:13.996Z,3.10
2019-05-06T06:43:02.158Z,2.93
2019-05-06T06:45:37.310Z,2.70
2019-05-06T06:51:12.474Z,2.40
2019-05-06T06:53:53.431Z,2.87
2019-05-06T06:56:42.384Z,2.83
2019-05-06T07:08:34.366Z,2.70
2019-05-06T07:10:53.683Z,3.12
2019-05-06T07:13:24.685Z,2.53
2019-05-06T07:16:14.989Z,2.60
2019-05-06T07:18:44.915Z,2.53
2019-05-06T07:21:15.036Z,2.80
2019-05-06T07:23:43.817Z,3.20
2019-05-06T07:26:14.389Z,2.53
2019-05-06T07:28:43.775Z,2.43
2019-05-06T07:31:21.959Z,2.37
2019-05-06T07:33:43.481Z,2.13
2019-05-06T07:36:13.062Z,2.43
2019-05-06T07:38:43.692Z,3.20
2019-05-06T07:41:15.083Z,2.10
2019-05-06T07:43:45.828Z,4.30
2019-05-06T07:46:16.408Z,2.50
2019-05-06T07:48:45.206Z,2.23
2019-05-06T07:51:13.878Z,2.10
2019-05-06T07:53:44.259Z,2.23
2019-05-06T07:56:12.984Z,2.23
2019-05-06T07:58:43.454Z,2.20
2019-05-06T08:01:16.397Z,1.87
2019-05-06T08:03:53.304Z,1.97
2019-05-06T08:06:18.844Z,2.00
2019-05-06T08:08:48.668Z,2.00
2019-05-06T08:11:17.550Z,2.17
2019-05-06T08:13:46.378Z,2.37
2019-05-06T08:16:15.275Z,2.07
2019-05-06T08:18:44.053Z,2.03
2019-05-06T08:21:17.300Z,2.03
2019-05-06T08:23:47.546Z,2.03
2019-05-06T08:26:17.871Z,2.43
2019-05-06T08:28:46.778Z,2.03
2019-05-06T08:31:17.245Z,1.80
2019-05-06T08:33:46.162Z,2.20
2019-05-06T08:36:16.418Z,2.03
2019-05-06T08:38:49.972Z,2.07
2019-05-06T08:41:18.769Z,1.57
2019-05-06T08:43:47.686Z,1.73
2019-05-06T08:46:16.540Z,1.97
2019-05-06T08:48:45.331Z,1.50
2019-05-06T08:51:15.709Z,1.03
2019-05-06T08:53:53.310Z,1.40
2019-05-06T08:56:22.185Z,1.43
2019-05-06T08:58:52.759Z,1.13
2019-05-06T09:01:26.725Z,1.40
2019-05-06T09:04:08.675Z,1.50
2019-05-06T09:06:30.206Z,1.63
2019-05-06T09:08:57.134Z,1.83
2019-05-06T09:11:27.586Z,2.17
2019-05-06T09:13:56.328Z,1.77
2019-05-06T09:16:25.119Z,1.60
2019-05-06T09:18:53.930Z,1.97
2019-05-06T09:21:22.815Z,1.93
2019-05-06T09:23:53.079Z,1.73
2019-05-06T09:26:35.879Z,1.87
2019-05-06T09:29:06.203Z,1.67
2019-05-06T09:31:46.017Z,1.77
2019-05-06T09:34:19.420Z,1.67
2019-05-06T09:36:54.431Z,1.80
2019-05-06T09:39:22.813Z,1.43
2019-05-06T09:41:57.782Z,1.50
2019-05-06T09:44:23.331Z,1.80
2019-05-06T09:46:53.154Z,1.83
2019-05-06T09:49:23.979Z,1.90
2019-05-06T09:51:52.959Z,1.83
2019-05-06T09:57:21.986Z,1.60
2019-05-06T09:59:49.105Z,1.60
2019-05-06T10:02:17.922Z,1.70
2019-05-06T10:04:46.781Z,1.47
2019-05-06T10:07:16.160Z,1.50
2019-05-06T10:09:46.170Z,1.97
2019-05-06T10:12:22.731Z,1.80
2019-05-06T10:14:47.359Z,1.80
2019-05-06T10:17:16.150Z,1.77
2019-05-06T10:19:45.054Z,1.77
2019-05-06T10:22:13.965Z,2.40
2019-05-06T10:24:43.401Z,2.57
2019-05-06T10:27:12.518Z,1.70
2019-05-06T10:29:45.698Z,1.70
2019-05-06T10:32:28.050Z,1.63
2019-05-06T10:34:57.079Z,1.97
2019-05-06T10:37:54.594Z,1.97
2019-05-06T10:40:38.838Z,1.30
2019-05-06T10:43:17.930Z,1.40
2019-05-06T10:45:49.121Z,1.37
2019-05-06T10:48:17.417Z,1.50
2019-05-06T10:50:47.935Z,1.40
2019-05-06T10:53:18.593Z,1.00
2019-05-06T10:55:53.615Z,2.27
2019-05-06T10:58:22.740Z,1.27
2019-05-06T11:00:59.687Z,0.90
2019-05-06T11:03:28.654Z,1.07
2019-05-06T11:05:57.483Z,4.53
2019-05-06T11:08:26.421Z,1.30
2019-05-06T11:10:55.290Z,1.17
2019-05-06T11:13:32.249Z,1.30
2019-05-06T11:16:00.422Z,1.40
2019-05-06T11:18:33.418Z,1.20
2019-05-06T11:21:04.100Z,1.10
2019-05-06T11:23:33.796Z,0.80
2019-05-06T11:26:03.213Z,0.83
2019-05-06T11:31:58.163Z,1.10
2019-05-06T11:37:00.833Z,1.03
2019-05-06T11:37:47.173Z,1.10
2019-05-06T11:39:28.841Z,1.23
2019-05-06T11:42:15.340Z,1.10
2019-05-06T11:44:28.221Z,1.00
2019-05-06T11:46:57.047Z,1.13
2019-05-06T11:49:25.993Z,1.40
2019-05-06T11:51:54.833Z,1.37
2019-05-06T11:54:24.653Z,1.30
2019-05-06T11:56:58.084Z,1.40
2019-05-06T11:59:26.088Z,1.40
2019-05-06T12:02:03.670Z,1.33
2019-05-06T12:04:34.606Z,1.00
2019-05-06T12:07:43.439Z,1.15
2019-05-06T12:09:37.328Z,1.53
2019-05-06T12:12:07.365Z,7.22
2019-05-06T12:14:36.385Z,1.63
2019-05-06T12:17:06.881Z,1.30
2019-05-06T12:19:47.945Z,1.40
2019-05-06T12:22:16.818Z,0.83
2019-05-06T12:24:46.112Z,1.10
2019-05-06T12:27:16.526Z,1.00
2019-05-06T12:29:45.181Z,1.40
2019-05-06T12:32:22.532Z,0.97
2019-05-06T12:34:52.485Z,1.50
2019-05-06T12:37:23.169Z,1.17
2019-05-06T12:39:53.613Z,1.03
2019-05-06T12:42:29.994Z,1.10
2019-05-06T12:45:03.694Z,0.90
2019-05-06T12:47:38.479Z,0.87
2019-05-06T12:50:07.833Z,1.10
2019-05-06T12:52:36.548Z,1.00
2019-05-06T12:55:18.421Z,1.30
2019-05-06T12:57:38.126Z,1.03
2019-05-06T13:00:08.939Z,1.03
2019-05-06T13:02:37.746Z,1.00
2019-05-06T13:05:07.569Z,1.50
2019-05-06T13:07:37.926Z,0.90
2019-05-06T13:10:07.734Z,1.00
2019-05-06T13:12:37.964Z,1.00
2019-05-06T13:15:08.196Z,1.07
2019-05-06T13:17:37.498Z,1.00
2019-05-06T13:20:07.915Z,0.90
2019-05-06T13:22:41.114Z,1.10
2019-05-06T13:25:13.361Z,1.00
2019-05-06T13:27:46.374Z,0.80
2019-05-06T13:30:15.783Z,0.90
2019-05-06T13:32:46.320Z,0.90
2019-05-06T13:35:15.404Z,0.90
2019-05-06T13:37:44.207Z,0.87
2019-05-06T13:40:13.576Z,1.00
2019-05-06T13:42:44.284Z,0.90
2019-05-06T13:45:13.108Z,1.00
2019-05-06T13:47:49.163Z,0.60
2019-05-06T13:50:19.574Z,1.57
2019-05-06T13:53:07.239Z,0.93
2019-05-06T13:55:22.036Z,0.93
2019-05-06T13:57:52.248Z,1.00
2019-05-06T14:00:22.431Z,0.83
2019-05-06T14:02:53.372Z,0.90
2019-05-06T14:05:22.655Z,1.20
2019-05-06T14:07:52.696Z,1.10
2019-05-06T14:10:22.307Z,0.93
2019-05-06T14:12:53.196Z,0.80
2019-05-06T14:15:23.181Z,0.90
2019-05-06T14:17:53.201Z,0.97
2019-05-06T14:20:22.512Z,0.90
2019-05-06T14:22:56.179Z,1.10
2019-05-06T14:25:26.844Z,1.20
2019-05-06T14:27:57.406Z,0.87
2019-05-06T14:30:42.693Z,0.80
2019-05-06T14:33:15.367Z,1.20
2019-05-06T14:35:44.633Z,0.70
2019-05-06T14:38:13.765Z,0.70
2019-05-06T14:41:04.506Z,0.73
2019-05-06T14:43:33.554Z,0.73
2019-05-06T14:46:03.010Z,1.07
2019-05-06T14:48:33.884Z,1.00
2019-05-06T14:51:02.834Z,1.00
2019-05-06T14:53:33.066Z,0.67
2019-05-06T14:56:04.238Z,1.10
2019-05-06T14:58:33.120Z,0.80
2019-05-06T15:01:03.533Z,0.70
2019-05-06T15:03:32.668Z,0.60
2019-05-06T15:06:02.637Z,0.70
2019-05-06T15:08:32.288Z,1.50
2019-05-06T15:11:03.116Z,0.90
2019-05-06T15:13:32.257Z,0.90
2019-05-06T15:16:03.454Z,0.73
2019-05-06T15:18:32.178Z,0.80
2019-05-06T15:21:29.076Z,0.70
2019-05-06T15:23:31.700Z,0.80
2019-05-06T15:26:02.920Z,0.87
2019-05-06T15:28:33.600Z,0.80
2019-05-06T15:31:12.528Z,0.90
2019-05-06T15:33:43.085Z,0.90
2019-05-06T15:36:13.821Z,0.80
2019-05-06T15:38:42.796Z,0.70
2019-05-06T15:41:12.878Z,0.73
2019-05-06T15:43:41.914Z,1.13
2019-05-06T15:46:12.245Z,1.50
2019-05-06T15:48:42.009Z,1.00
2019-05-06T15:51:12.219Z,1.40
2019-05-06T15:53:43.302Z,1.17
2019-05-06T15:56:12.347Z,1.43
2019-05-06T15:58:42.337Z,0.90
2019-05-06T16:01:14.289Z,1.17
2019-05-06T16:03:43.360Z,1.03
2019-05-06T16:06:12.622Z,0.80
2019-05-06T16:08:42.752Z,1.00
2019-05-06T16:11:27.074Z,1.10
2019-05-06T16:13:46.931Z,1.00
2019-05-06T16:16:15.639Z,1.37
2019-05-06T16:18:44.520Z,1.43
2019-05-06T16:21:13.415Z,1.20
2019-05-06T16:23:46.487Z,1.10
2019-05-06T16:26:17.268Z,1.33
2019-05-06T16:28:46.274Z,1.00
2019-05-06T16:31:15.058Z,1.07
2019-05-06T16:33:47.851Z,1.07
2019-05-06T16:36:16.849Z,1.43
2019-05-06T16:38:45.839Z,1.23
2019-05-06T16:41:16.353Z,1.57
2019-05-06T16:43:45.262Z,0.90
2019-05-06T16:46:23.005Z,1.23
2019-05-06T16:48:52.518Z,1.20
2019-05-06T16:51:22.288Z,1.50
2019-05-06T16:53:52.520Z,1.40
2019-05-06T16:56:38.548Z,1.50
2019-05-06T16:59:10.434Z,2.10
2019-05-06T17:01:42.577Z,1.60
2019-05-06T17:04:14.632Z,1.30
2019-05-06T17:06:45.145Z,1.60
2019-05-06T17:09:20.904Z,1.77
2019-05-06T17:11:44.710Z,1.57
2019-05-06T17:14:13.751Z,1.30
2019-05-06T17:16:42.760Z,1.83
2019-05-06T17:19:12.693Z,2.53
2019-05-06T17:21:42.410Z,1.80
2019-05-06T17:24:13.023Z,1.87
2019-05-06T17:26:43.610Z,1.97
2019-05-06T17:29:15.654Z,1.90
2019-05-06T17:31:47.748Z,1.50
2019-05-06T17:34:20.968Z,1.90
2019-05-06T17:36:53.457Z,2.00
2019-05-06T17:39:24.051Z,1.43
2019-05-06T17:41:54.095Z,1.80
2019-05-06T17:44:25.047Z,1.70
2019-05-06T17:47:12.208Z,2.20
2019-05-06T17:49:42.267Z,1.70
2019-05-06T17:52:15.927Z,1.63
2019-05-06T17:54:44.730Z,1.67
2019-05-06T17:57:13.642Z,1.70
2019-05-06T17:59:42.642Z,1.97
2019-05-06T18:02:14.989Z,1.90
2019-05-06T18:04:44.167Z,1.70
2019-05-06T18:07:13.219Z,2.30
2019-05-06T18:09:42.623Z,2.00
2019-05-06T18:12:12.199Z,2.33
2019-05-06T18:14:43.274Z,2.10
2019-05-06T18:17:12.591Z,1.77
2019-05-06T18:19:41.911Z,1.77
2019-05-06T18:22:12.962Z,2.30
2019-05-06T18:24:41.258Z,1.90
2019-05-06T18:27:10.100Z,2.00
2019-05-06T18:29:38.961Z,1.53
2019-05-06T18:32:07.937Z,2.13
2019-05-06T18:34:36.857Z,1.80
2019-05-06T18:37:05.653Z,1.93
2019-05-06T18:39:34.663Z,2.17
2019-05-06T18:42:15.441Z,1.90
2019-05-06T18:44:33.966Z,2.43
2019-05-06T18:47:02.986Z,2.10
2019-05-06T18:49:33.666Z,2.30
2019-05-06T18:52:02.339Z,2.20
2019-05-06T18:54:33.874Z,1.80
2019-05-06T18:57:04.297Z,2.10
2019-05-06T18:59:33.123Z,1.70
2019-05-06T19:02:02.484Z,1.90
2019-05-06T19:04:35.921Z,2.10
2019-05-06T19:07:12.869Z,2.17
2019-05-06T19:09:42.220Z,1.87
2019-05-06T19:12:12.736Z,2.20
2019-05-06T19:14:43.225Z,2.53
2019-05-06T19:17:17.332Z,2.30
2019-05-06T19:19:46.089Z,2.43
2019-05-06T19:22:15.002Z,2.60
2019-05-06T19:24:44.657Z,2.67
2019-05-06T19:27:13.668Z,2.83
2019-05-06T19:29:43.257Z,2.77
2019-05-06T19:32:12.469Z,3.10
2019-05-06T19:34:42.253Z,3.83
2019-05-06T19:37:11.222Z,3.33
2019-05-06T19:39:40.009Z,3.47
2019-05-06T19:42:09.014Z,3.10
2019-05-06T19:44:37.895Z,3.47
2019-05-06T19:47:06.780Z,3.40
2019-05-06T19:49:35.608Z,3.60
2019-05-06T19:52:05.973Z,3.50
2019-05-06T19:54:34.902Z,3.40
2019-05-06T19:57:03.806Z,3.50
2019-05-06T19:59:33.203Z,3.23
2019-05-06T20:02:02.256Z,3.60
2019-05-06T20:04:33.233Z,3.80
2019-05-06T20:07:20.098Z,3.40
2019-05-06T20:10:06.827Z,2.90
2019-05-06T20:12:37.406Z,3.20
2019-05-06T20:15:26.223Z,3.27
2019-05-06T20:17:55.435Z,3.40
2019-05-06T20:20:24.221Z,3.67
2019-05-06T20:22:53.419Z,3.27
2019-05-06T20:25:22.431Z,2.90
2019-05-06T20:27:52.664Z,2.87
2019-05-06T20:30:21.992Z,3.23
2019-05-06T20:32:52.129Z,3.30
2019-05-06T20:35:22.416Z,3.13
2019-05-06T20:37:53.252Z,2.77
2019-05-06T20:40:22.935Z,3.47
2019-05-06T20:42:52.117Z,3.53
2019-05-06T20:45:23.677Z,3.43
2019-05-06T20:47:52.645Z,3.13
2019-05-06T20:50:23.177Z,3.80
2019-05-06T20:52:52.244Z,4.00
2019-05-06T20:55:22.918Z,4.20
2019-05-06T20:57:52.907Z,4.33
2019-05-06T21:00:22.556Z,4.90
2019-05-06T21:02:56.402Z,4.83
2019-05-06T21:05:46.174Z,4.57
2019-05-06T21:08:06.311Z,4.10
2019-05-06T21:10:35.293Z,4.03
2019-05-06T21:13:04.353Z,4.60
2019-05-06T21:15:33.332Z,3.80
2019-05-06T21:18:04.464Z,4.00
2019-05-06T21:20:33.126Z,4.20
2019-05-06T21:23:02.570Z,3.87
2019-05-06T21:25:32.199Z,4.10
2019-05-06T21:28:02.875Z,3.80
2019-05-06T21:30:32.306Z,4.10
2019-05-06T21:33:01.408Z,3.97
2019-05-06T21:35:30.359Z,3.83
2019-05-06T21:37:59.040Z,4.67
2019-05-06T21:40:27.801Z,3.70
2019-05-06T21:42:56.555Z,4.37
2019-05-06T21:45:25.680Z,4.13
2019-05-06T21:47:54.557Z,3.43
2019-05-06T21:50:23.321Z,4.43
2019-05-06T21:52:52.029Z,3.77
2019-05-06T21:55:22.675Z,3.97
2019-05-06T21:57:52.975Z,4.23
2019-05-06T22:00:44.627Z,4.20
2019-05-06T22:03:13.754Z,4.30
2019-05-06T22:05:42.586Z,4.07
2019-05-06T22:08:12.899Z,4.67
2019-05-06T22:10:46.960Z,4.10
2019-05-06T22:13:15.659Z,4.73
2019-05-06T22:15:46.049Z,4.57
2019-05-06T22:18:14.769Z,4.57
2019-05-06T22:21:02.894Z,4.90
2019-05-06T22:23:49.750Z,4.87
2019-05-06T22:26:18.757Z,4.50
2019-05-06T22:28:47.739Z,4.47
2019-05-06T22:31:16.587Z,5.23
2019-05-06T22:33:45.335Z,4.87
2019-05-06T22:36:14.083Z,4.53
2019-05-06T22:38:44.366Z,4.60
2019-05-06T22:41:13.769Z,4.83
2019-05-06T22:43:42.734Z,5.57
2019-05-06T22:46:12.350Z,4.80
2019-05-06T22:48:43.382Z,5.50
2019-05-06T22:51:12.395Z,5.23
2019-05-06T22:53:42.503Z,5.43
2019-05-06T22:56:13.240Z,5.63
2019-05-06T22:58:42.764Z,5.10
2019-05-06T23:01:13.733Z,5.87
2019-05-06T23:03:43.026Z,5.93
2019-05-06T23:06:12.532Z,5.57
2019-05-06T23:08:43.307Z,5.13
2019-05-06T23:11:13.586Z,5.70
2019-05-06T23:13:44.062Z,5.47
2019-05-06T23:16:12.930Z,5.23
2019-05-06T23:18:42.877Z,5.27
2019-05-06T23:21:14.645Z,5.27
2019-05-06T23:23:43.508Z,5.77
2019-05-06T23:26:24.931Z,5.77
2019-05-06T23:28:53.697Z,5.73
2019-05-06T23:31:24.435Z,5.90
2019-05-06T23:33:53.603Z,5.30
2019-05-06T23:36:22.955Z,6.50
2019-05-06T23:39:28.159Z,5.57
2019-05-06T23:42:33.082Z,6.57
2019-05-06T23:45:38.267Z,5.70
2019-05-06T23:48:43.145Z,6.20
2019-05-06T23:51:48.450Z,6.00
2019-05-06T23:54:53.512Z,6.40
2019-05-06T23:57:22.517Z,6.57
2019-05-06T23:59:51.889Z,5.87
